createdAt,value
2019-03-10T00:01:11.803Z,69.60
2019-03-10T00:05:17.510Z,69.60
2019-03-10T00:09:23.196Z,69.40
2019-03-10T00:13:29.283Z,68.90
2019-03-10T00:17:34.963Z,68.80
2019-03-10T00:21:40.660Z,69.30
2019-03-10T00:25:46.460Z,69.30
2019-03-10T00:29:52.153Z,69.60
2019-03-10T00:33:57.831Z,69.80
2019-03-10T00:38:03.627Z,69.60
2019-03-10T00:42:34.070Z,69.80
2019-03-10T00:47:08.225Z,70.30
2019-03-10T00:51:30.469Z,70.20
2019-03-10T00:55:36.206Z,70.80
2019-03-10T00:59:41.868Z,71.30
2019-03-10T01:03:47.577Z,71.60
2019-03-10T01:07:53.343Z,71.70
2019-03-10T01:11:59.342Z,71.60
2019-03-10T01:16:05.218Z,71.00
2019-03-10T01:20:13.081Z,71.30
2019-03-10T01:24:18.835Z,72.20
2019-03-10T01:28:24.574Z,72.70
2019-03-10T01:33:18.112Z,72.80
2019-03-10T01:37:23.792Z,73.30
2019-03-10T01:41:29.483Z,73.80
2019-03-10T01:45:35.174Z,74.20
2019-03-10T01:49:40.866Z,74.80
2019-03-10T01:53:46.614Z,74.60
2019-03-10T01:57:52.306Z,74.70
2019-03-10T02:01:58.000Z,74.50
2019-03-10T02:06:03.778Z,74.70
2019-03-10T02:10:13.469Z,74.90
2019-03-10T02:14:19.154Z,75.00
2019-03-10T02:18:24.835Z,75.20
2019-03-10T02:22:30.536Z,75.30
2019-03-10T02:26:36.223Z,74.50
2019-03-10T02:30:41.921Z,74.90
2019-03-10T02:34:47.595Z,74.70
2019-03-10T02:38:53.373Z,74.30
2019-03-10T02:42:59.118Z,73.90
2019-03-10T02:47:04.875Z,73.60
2019-03-10T02:51:10.564Z,74.00
2019-03-10T02:55:16.343Z,73.00
2019-03-10T02:59:22.017Z,73.00
2019-03-10T03:03:27.717Z,72.40
2019-03-10T03:07:33.404Z,72.20
2019-03-10T03:11:39.113Z,72.60
2019-03-10T03:15:44.794Z,73.50
2019-03-10T03:19:50.493Z,74.50
2019-03-10T03:23:56.173Z,75.10
2019-03-10T03:28:01.897Z,75.10
2019-03-10T03:32:07.603Z,75.50
2019-03-10T03:36:26.895Z,76.70
2019-03-10T03:40:33.420Z,76.30
2019-03-10T03:44:39.103Z,76.10
2019-03-10T03:48:44.835Z,76.90
2019-03-10T03:52:50.495Z,75.40
2019-03-10T03:56:56.264Z,75.90
2019-03-10T04:01:05.101Z,74.80
2019-03-10T04:05:11.554Z,75.30
2019-03-10T04:09:17.308Z,75.20
2019-03-10T04:13:23.074Z,74.20
2019-03-10T04:17:28.780Z,74.80
2019-03-10T04:21:34.477Z,76.20
2019-03-10T04:25:40.238Z,76.00
2019-03-10T04:29:45.932Z,75.00
2019-03-10T04:33:53.316Z,74.80
2019-03-10T04:37:59.010Z,75.60
2019-03-10T04:42:04.689Z,75.60
2019-03-10T04:46:13.546Z,75.60
2019-03-10T04:50:17.778Z,76.10
2019-03-10T04:54:25.108Z,76.40
2019-03-10T04:58:31.859Z,75.90
2019-03-10T05:02:37.572Z,76.80
2019-03-10T05:06:43.272Z,78.00
2019-03-10T05:10:48.979Z,77.10
2019-03-10T05:14:54.662Z,77.50
2019-03-10T05:19:00.327Z,77.60
2019-03-10T05:23:32.162Z,78.80
2019-03-10T05:27:37.856Z,79.00
2019-03-10T05:31:43.550Z,78.00
2019-03-10T05:35:49.256Z,79.00
2019-03-10T05:39:54.922Z,79.50
2019-03-10T05:44:01.593Z,80.20
2019-03-10T05:48:07.350Z,80.30
2019-03-10T05:52:13.025Z,80.50
2019-03-10T05:56:18.785Z,80.90
2019-03-10T06:00:24.465Z,80.60
2019-03-10T06:04:30.147Z,81.20
2019-03-10T06:08:35.847Z,81.80
2019-03-10T06:12:41.559Z,82.80
2019-03-10T06:16:47.257Z,82.90
2019-03-10T06:20:52.951Z,86.10
2019-03-10T06:24:58.647Z,85.40
2019-03-10T06:29:04.458Z,87.30
2019-03-10T06:33:10.141Z,88.50
2019-03-10T06:37:15.832Z,89.20
2019-03-10T06:41:21.520Z,88.70
2019-03-10T06:45:27.208Z,89.70
2019-03-10T06:49:32.898Z,89.80
2019-03-10T06:53:38.591Z,88.00
2019-03-10T06:57:44.263Z,88.00
2019-03-10T07:01:49.963Z,88.10
2019-03-10T07:05:55.649Z,89.60
2019-03-10T07:10:01.346Z,90.20
2019-03-10T07:14:07.180Z,89.60
2019-03-10T07:18:12.864Z,90.30
2019-03-10T07:22:18.593Z,89.90
2019-03-10T07:26:24.288Z,90.80
2019-03-10T07:35:36.928Z,91.30
2019-03-10T07:39:46.986Z,91.40
2019-03-10T07:44:02.745Z,90.90
2019-03-10T07:48:16.162Z,91.00
2019-03-10T07:52:26.604Z,91.10
2019-03-10T07:56:33.936Z,91.40
2019-03-10T08:00:41.273Z,91.30
2019-03-10T08:05:03.744Z,91.40
2019-03-10T08:09:13.860Z,91.10
2019-03-10T08:13:36.269Z,90.90
2019-03-10T08:17:52.395Z,90.90
2019-03-10T08:22:15.818Z,91.30
2019-03-10T08:26:23.128Z,91.20
2019-03-10T08:30:48.049Z,91.10
2019-03-10T08:35:11.758Z,91.10
2019-03-10T08:39:21.575Z,91.30
2019-03-10T08:43:31.868Z,90.80
2019-03-10T08:47:41.671Z,90.90
2019-03-10T08:51:49.086Z,90.80
2019-03-10T08:56:02.074Z,90.20
2019-03-10T09:00:32.347Z,90.80
2019-03-10T09:04:37.815Z,90.30
2019-03-10T09:09:01.048Z,90.40
2019-03-10T09:13:12.964Z,90.90
2019-03-10T09:17:26.075Z,90.50
2019-03-10T09:21:45.402Z,90.50
2019-03-10T09:25:55.392Z,90.70
2019-03-10T09:30:19.040Z,90.40
2019-03-10T09:34:42.464Z,90.90
2019-03-10T09:39:05.861Z,90.90
2019-03-10T09:43:20.574Z,90.80
2019-03-10T09:47:31.036Z,90.60
2019-03-10T09:51:47.190Z,90.50
2019-03-10T09:56:07.731Z,90.40
2019-03-10T10:00:23.486Z,90.70
2019-03-10T10:04:33.547Z,90.50
2019-03-10T10:08:45.343Z,90.60
2019-03-10T10:13:04.871Z,90.50
2019-03-10T10:17:24.366Z,91.10
2019-03-10T10:21:35.626Z,90.70
2019-03-10T10:25:43.753Z,90.40
2019-03-10T10:30:07.234Z,90.00
2019-03-10T10:34:24.827Z,88.80
2019-03-10T10:38:44.055Z,86.80
2019-03-10T10:43:07.551Z,87.90
2019-03-10T10:47:14.869Z,88.50
2019-03-10T10:51:31.275Z,89.20
2019-03-10T10:55:38.624Z,90.10
2019-03-10T10:59:54.887Z,89.00
2019-03-10T11:04:17.249Z,88.70
2019-03-10T11:08:24.661Z,89.10
2019-03-10T11:12:37.728Z,89.20
2019-03-10T11:16:55.378Z,89.10
2019-03-10T11:21:05.445Z,81.00
2019-03-10T11:25:12.869Z,73.00
2019-03-10T11:29:20.217Z,64.30
2019-03-10T11:33:28.638Z,65.70
2019-03-10T11:37:38.719Z,64.20
2019-03-10T11:41:48.148Z,48.90
2019-03-10T11:45:58.256Z,40.00
2019-03-10T11:50:16.904Z,38.80
2019-03-10T11:54:36.500Z,40.50
2019-03-10T11:58:46.990Z,44.80
2019-03-10T12:02:57.007Z,46.70
2019-03-10T12:07:19.252Z,47.90
2019-03-10T12:11:25.043Z,47.80
2019-03-10T12:15:30.727Z,52.40
2019-03-10T12:19:36.421Z,57.50
2019-03-10T12:23:42.180Z,54.90
2019-03-10T12:27:47.909Z,51.50
2019-03-10T12:31:54.757Z,51.30
2019-03-10T12:36:00.693Z,49.20
2019-03-10T12:40:19.256Z,45.80
2019-03-10T12:44:24.994Z,49.20
2019-03-10T12:48:30.699Z,47.50
2019-03-10T12:52:36.405Z,46.50
2019-03-10T12:56:42.080Z,49.20
2019-03-10T13:00:50.986Z,47.30
2019-03-10T13:04:56.770Z,46.60
2019-03-10T13:09:02.604Z,47.60
2019-03-10T13:13:18.834Z,45.20
2019-03-10T13:17:24.535Z,41.40
2019-03-10T13:21:30.364Z,38.40
2019-03-10T13:25:36.153Z,38.20
2019-03-10T13:29:41.927Z,39.20
2019-03-10T13:33:47.676Z,37.90
2019-03-10T13:37:53.402Z,37.80
2019-03-10T13:42:16.970Z,32.80
2019-03-10T13:46:22.701Z,32.10
2019-03-10T13:50:28.552Z,30.40
2019-03-10T13:54:34.250Z,28.20
2019-03-10T13:58:40.132Z,28.60
2019-03-10T14:02:45.885Z,30.80
2019-03-10T14:06:51.639Z,33.20
2019-03-10T14:10:59.303Z,33.10
2019-03-10T14:15:09.402Z,31.90
2019-03-10T14:19:15.117Z,30.30
2019-03-10T14:23:20.830Z,28.60
2019-03-10T14:34:02.917Z,29.60
2019-03-10T14:43:19.723Z,32.90
2019-03-10T14:48:16.522Z,34.60
2019-03-10T14:52:28.228Z,36.90
2019-03-10T14:57:18.825Z,37.40
2019-03-10T15:01:24.542Z,38.10
2019-03-10T15:06:18.395Z,39.30
2019-03-10T15:10:24.594Z,40.00
2019-03-10T15:14:30.290Z,40.00
2019-03-10T15:18:36.004Z,38.90
2019-03-10T15:22:41.955Z,39.60
2019-03-10T15:26:47.763Z,39.70
2019-03-10T15:30:53.664Z,39.30
2019-03-10T15:35:00.310Z,39.30
2019-03-10T15:39:07.226Z,40.10
2019-03-10T15:43:13.917Z,41.70
2019-03-10T15:47:19.623Z,43.30
2019-03-10T15:51:25.411Z,44.40
2019-03-10T15:55:31.144Z,45.10
2019-03-10T15:59:36.861Z,46.50
2019-03-10T16:03:42.617Z,47.00
2019-03-10T16:07:48.385Z,43.60
2019-03-10T16:11:54.154Z,43.10
2019-03-10T16:16:01.179Z,39.80
2019-03-10T16:20:11.640Z,39.20
2019-03-10T16:24:17.373Z,38.80
2019-03-10T16:28:23.219Z,37.10
2019-03-10T16:32:30.620Z,36.90
2019-03-10T16:36:36.446Z,36.70
2019-03-10T16:40:42.157Z,36.60
2019-03-10T16:44:47.848Z,38.60
2019-03-10T16:48:53.753Z,37.30
2019-03-10T16:52:59.552Z,37.10
2019-03-10T16:57:05.481Z,38.00
2019-03-10T17:01:14.292Z,38.50
2019-03-10T17:05:22.746Z,37.80
2019-03-10T17:09:28.462Z,38.10
2019-03-10T17:13:34.255Z,38.00
2019-03-10T17:17:40.020Z,37.70
2019-03-10T17:21:45.736Z,36.30
2019-03-10T17:25:51.491Z,36.40
2019-03-10T17:29:57.204Z,36.10
2019-03-10T17:34:02.964Z,35.50
2019-03-10T17:38:08.750Z,35.50
2019-03-10T17:42:16.057Z,35.20
2019-03-10T17:46:21.790Z,35.90
2019-03-10T17:50:27.647Z,36.50
2019-03-10T17:54:33.331Z,37.00
2019-03-10T17:58:39.096Z,37.40
2019-03-10T18:02:44.800Z,37.50
2019-03-10T18:06:50.524Z,37.30
2019-03-10T18:10:56.400Z,37.80
2019-03-10T18:15:08.647Z,38.10
2019-03-10T18:19:09.524Z,39.50
2019-03-10T18:23:15.223Z,41.10
2019-03-10T18:27:20.950Z,43.70
2019-03-10T18:36:44.233Z,47.60
2019-03-10T18:40:49.994Z,47.50
2019-03-10T18:44:55.761Z,46.70
2019-03-10T18:49:01.500Z,46.50
2019-03-10T18:53:07.260Z,54.70
2019-03-10T18:57:19.682Z,55.20
2019-03-10T19:01:25.495Z,56.30
2019-03-10T19:05:31.232Z,58.90
2019-03-10T19:09:37.021Z,62.10
2019-03-10T19:13:42.746Z,64.30
2019-03-10T19:17:48.432Z,62.50
2019-03-10T19:26:20.464Z,63.00
2019-03-10T19:30:26.486Z,62.80
2019-03-10T19:34:32.232Z,64.30
2019-03-10T19:38:38.042Z,61.40
2019-03-10T19:42:43.871Z,56.80
2019-03-10T19:46:49.575Z,58.40
2019-03-10T19:50:55.402Z,56.40
2019-03-10T19:55:02.129Z,51.30
2019-03-10T19:59:08.921Z,52.20
2019-03-10T20:03:14.646Z,48.90
2019-03-10T20:07:20.393Z,50.60
2019-03-10T20:11:26.078Z,50.30
2019-03-10T20:15:31.788Z,50.00
2019-03-10T20:19:37.484Z,50.80
2019-03-10T20:23:43.296Z,49.00
2019-03-10T20:27:49.047Z,49.20
2019-03-10T20:31:54.912Z,48.00
2019-03-10T20:36:00.626Z,46.90
2019-03-10T20:40:22.926Z,48.90
2019-03-10T20:44:28.612Z,47.20
2019-03-10T20:48:34.342Z,45.00
2019-03-10T20:52:40.108Z,44.50
2019-03-10T20:56:45.817Z,43.70
2019-03-10T21:00:51.657Z,44.40
2019-03-10T21:04:57.490Z,44.90
2019-03-10T21:09:03.810Z,43.30
2019-03-10T21:13:11.135Z,44.00
2019-03-10T21:17:16.841Z,43.60
2019-03-10T21:21:22.567Z,42.20
2019-03-10T21:25:31.049Z,42.50
2019-03-10T21:29:36.770Z,39.10
2019-03-10T21:33:42.487Z,41.30
2019-03-10T21:37:49.225Z,40.30
2019-03-10T21:41:55.076Z,39.00
2019-03-10T21:46:04.600Z,38.10
2019-03-10T21:50:18.400Z,38.40
2019-03-10T21:54:24.155Z,38.70
2019-03-10T21:58:29.861Z,38.50
2019-03-10T22:02:35.554Z,39.80
2019-03-10T22:06:41.278Z,40.30
2019-03-10T22:10:46.937Z,41.20
2019-03-10T22:14:52.661Z,41.10
2019-03-10T22:18:59.974Z,41.40
2019-03-10T22:23:05.743Z,41.10
2019-03-10T22:27:11.405Z,41.10
2019-03-10T22:31:17.221Z,41.80
2019-03-10T22:35:22.929Z,41.20
2019-03-10T22:39:28.613Z,40.80
2019-03-10T22:43:34.333Z,40.10
2019-03-10T22:47:40.008Z,40.50
2019-03-10T22:51:46.676Z,40.80
2019-03-10T22:55:52.458Z,41.40
2019-03-10T23:06:16.529Z,45.20
2019-03-10T23:10:22.232Z,45.40
2019-03-10T23:15:15.874Z,46.20
2019-03-10T23:19:21.547Z,45.10
2019-03-10T23:24:18.184Z,45.50
2019-03-10T23:28:23.875Z,45.10
2019-03-10T23:33:17.535Z,44.90
2019-03-10T23:37:23.219Z,44.50
2019-03-10T23:42:17.057Z,44.90
2019-03-10T23:46:22.758Z,45.00
2019-03-10T23:51:15.975Z,43.40
2019-03-10T23:55:21.805Z,43.50
2019-03-10T23:59:27.499Z,42.40
